createdAt,value
2022-08-17T00:00:42.724Z,26.53
2022-08-17T00:05:53.766Z,26.98
2022-08-17T00:10:55.798Z,27.20
2022-08-17T00:16:01.310Z,27.38
2022-08-17T00:21:04.664Z,27.00
2022-08-17T00:26:12.502Z,25.66
2022-08-17T00:31:15.668Z,25.33
2022-08-17T00:36:17.331Z,26.25
2022-08-17T00:41:22.335Z,26.73
2022-08-17T00:46:36.295Z,26.99
2022-08-17T00:51:58.318Z,27.24
2022-08-17T00:57:21.185Z,26.90
2022-08-17T01:02:22.781Z,25.38
2022-08-17T01:07:26.427Z,24.31
2022-08-17T01:12:28.538Z,24.38
2022-08-17T01:17:29.702Z,25.56
2022-08-17T01:22:31.534Z,26.01
2022-08-17T01:27:34.506Z,26.36
2022-08-17T01:32:37.297Z,26.73
2022-08-17T01:37:41.747Z,26.94
2022-08-17T01:42:51.320Z,26.42
2022-08-17T01:47:53.654Z,24.91
2022-08-17T01:52:59.447Z,24.62
2022-08-17T01:58:00.654Z,25.71
2022-08-17T02:03:04.695Z,26.15
2022-08-17T02:08:06.588Z,26.37
2022-08-17T02:13:07.954Z,26.56
2022-08-17T02:18:09.884Z,26.74
2022-08-17T02:23:12.283Z,26.36
2022-08-17T02:28:14.639Z,24.94
2022-08-17T02:33:15.800Z,24.66
2022-08-17T02:38:16.985Z,25.96
2022-08-17T02:43:18.087Z,26.23
2022-08-17T02:48:29.728Z,26.38
2022-08-17T02:53:36.200Z,26.67
2022-08-17T02:58:37.702Z,26.32
2022-08-17T03:03:39.278Z,24.90
2022-08-17T03:08:40.377Z,24.87
2022-08-17T03:13:41.452Z,26.23
2022-08-17T03:18:42.667Z,26.68
2022-08-17T03:23:43.756Z,27.03
2022-08-17T03:28:45.669Z,26.58
2022-08-17T03:33:47.121Z,25.02
2022-08-17T03:38:48.327Z,23.96
2022-08-17T03:43:52.188Z,24.20
2022-08-17T03:49:12.614Z,25.27
2022-08-17T03:54:31.782Z,25.64
2022-08-17T03:59:34.152Z,25.97
2022-08-17T04:04:36.892Z,26.26
2022-08-17T04:09:38.025Z,25.73
2022-08-17T04:14:53.464Z,24.35
2022-08-17T04:19:56.150Z,24.67
2022-08-17T04:24:57.726Z,26.25
2022-08-17T04:30:01.017Z,26.51
2022-08-17T04:35:02.216Z,26.70
2022-08-17T04:40:22.349Z,27.00
2022-08-17T04:45:24.195Z,26.71
2022-08-17T04:50:25.420Z,25.36
2022-08-17T04:55:26.659Z,25.25
2022-08-17T05:00:27.762Z,26.54
2022-08-17T05:05:36.441Z,27.13
2022-08-17T05:10:38.196Z,26.98
2022-08-17T05:15:49.367Z,25.69
2022-08-17T05:20:51.225Z,25.67
2022-08-17T05:25:55.581Z,26.93
2022-08-17T05:30:59.511Z,27.44
2022-08-17T05:36:03.128Z,27.89
2022-08-17T05:41:07.076Z,28.67
2022-08-17T05:46:33.091Z,29.83
2022-08-17T05:51:46.856Z,31.17
2022-08-17T05:57:14.123Z,32.33
2022-08-17T06:02:21.777Z,33.37
2022-08-17T06:07:47.162Z,33.98
2022-08-17T06:13:07.100Z,34.59
2022-08-17T06:18:10.856Z,35.40
2022-08-17T06:23:23.948Z,36.06
2022-08-17T06:28:34.598Z,36.62
2022-08-17T06:33:38.635Z,37.06
2022-08-17T06:38:58.538Z,37.57
2022-08-17T06:44:12.860Z,37.66
2022-08-17T06:49:55.208Z,37.71
2022-08-17T06:55:05.791Z,37.70
2022-08-17T07:00:18.736Z,37.95
2022-08-17T07:05:24.192Z,38.48
2022-08-17T07:10:27.450Z,38.99
2022-08-17T07:15:42.159Z,39.23
2022-08-17T07:20:50.504Z,39.57
2022-08-17T07:25:52.058Z,39.74
2022-08-17T07:30:54.241Z,39.88
2022-08-17T07:35:57.339Z,39.94
2022-08-17T07:41:07.702Z,39.89
2022-08-17T07:46:44.513Z,39.66
2022-08-17T07:51:49.678Z,39.54
2022-08-17T07:57:09.804Z,39.42
2022-08-17T08:02:26.476Z,38.98
2022-08-17T08:07:48.163Z,38.48
2022-08-17T08:13:08.251Z,37.91
2022-08-17T08:18:39.666Z,37.35
2022-08-17T08:23:59.337Z,36.69
2022-08-17T08:29:22.331Z,36.02
2022-08-17T08:35:01.525Z,35.37
2022-08-17T08:40:26.747Z,34.90
2022-08-17T08:45:59.329Z,34.54
2022-08-17T08:51:06.615Z,34.07
2022-08-17T08:57:11.592Z,33.95
2022-08-17T09:02:19.515Z,33.90
2022-08-17T09:07:50.177Z,33.78
2022-08-17T09:13:14.610Z,33.54
2022-08-17T09:19:02.303Z,33.46
2022-08-17T09:24:13.341Z,33.61
2022-08-17T09:29:17.009Z,33.48
2022-08-17T09:34:31.960Z,32.97
2022-08-17T09:40:01.242Z,32.76
2022-08-17T09:45:24.168Z,32.65
2022-08-17T09:50:55.481Z,32.54
2022-08-17T09:56:25.288Z,32.32
2022-08-17T10:01:37.354Z,32.20
2022-08-17T10:06:52.084Z,31.79
2022-08-17T10:12:23.562Z,31.33
2022-08-17T10:18:08.931Z,31.30
2022-08-17T10:23:48.973Z,31.59
2022-08-17T10:29:05.869Z,31.81
2022-08-17T10:34:44.062Z,31.74
2022-08-17T10:40:01.751Z,31.60
2022-08-17T10:45:25.600Z,31.81
2022-08-17T10:51:06.850Z,32.08
2022-08-17T10:56:10.869Z,32.28
2022-08-17T11:01:12.769Z,32.49
2022-08-17T11:06:23.668Z,32.57
2022-08-17T11:11:45.050Z,32.51
2022-08-17T11:17:04.738Z,32.51
2022-08-17T11:22:33.804Z,32.52
2022-08-17T11:27:35.922Z,32.60
2022-08-17T11:32:54.641Z,32.74
2022-08-17T11:38:16.705Z,32.76
2022-08-17T11:43:48.362Z,32.65
2022-08-17T11:49:10.987Z,32.76
2022-08-17T11:54:34.628Z,32.96
2022-08-17T11:59:35.914Z,33.15
2022-08-17T12:04:37.165Z,33.26
2022-08-17T12:09:47.216Z,33.10
2022-08-17T12:15:11.026Z,32.80
2022-08-17T12:20:32.144Z,32.75
2022-08-17T12:25:37.064Z,32.97
2022-08-17T12:30:38.304Z,33.27
2022-08-17T12:35:39.523Z,33.34
2022-08-17T12:40:54.088Z,33.24
2022-08-17T12:46:00.690Z,32.83
2022-08-17T12:51:06.884Z,32.47
2022-08-17T12:56:11.205Z,32.20
2022-08-17T13:01:16.882Z,32.08
2022-08-17T13:06:36.918Z,32.15
2022-08-17T13:11:50.029Z,32.45
2022-08-17T13:16:59.632Z,32.57
2022-08-17T13:22:01.687Z,32.42
2022-08-17T13:27:11.560Z,32.25
2022-08-17T13:32:19.989Z,31.98
2022-08-17T13:37:30.009Z,31.73
2022-08-17T13:42:34.266Z,31.56
2022-08-17T13:48:15.643Z,31.47
2022-08-17T13:53:35.550Z,31.39
2022-08-17T13:58:51.425Z,31.39
2022-08-17T14:03:52.627Z,31.59
2022-08-17T14:08:55.114Z,31.99
2022-08-17T14:13:56.228Z,32.38
2022-08-17T14:18:57.965Z,32.54
2022-08-17T14:23:59.143Z,32.32
2022-08-17T14:29:00.988Z,31.93
2022-08-17T14:34:02.359Z,31.54
2022-08-17T14:39:06.101Z,31.17
2022-08-17T14:44:11.667Z,30.88
2022-08-17T14:49:14.819Z,30.65
2022-08-17T14:54:34.326Z,30.47
2022-08-17T14:59:35.714Z,30.35
2022-08-17T15:04:39.789Z,30.26
2022-08-17T15:09:43.601Z,30.21
2022-08-17T15:14:45.907Z,30.25
2022-08-17T15:19:47.070Z,30.32
2022-08-17T15:24:48.553Z,30.36
2022-08-17T15:29:50.214Z,30.37
2022-08-17T15:34:53.802Z,30.35
2022-08-17T15:39:55.247Z,30.35
2022-08-17T15:44:56.522Z,30.37
2022-08-17T15:50:00.157Z,30.33
2022-08-17T15:55:02.975Z,30.26
2022-08-17T16:00:07.123Z,30.19
2022-08-17T16:05:11.837Z,30.14
2022-08-17T16:10:19.014Z,30.18
2022-08-17T16:15:20.696Z,30.36
2022-08-17T16:20:21.864Z,30.80
2022-08-17T16:25:38.807Z,30.95
2022-08-17T16:30:49.012Z,31.03
2022-08-17T16:35:50.133Z,30.82
2022-08-17T16:40:51.265Z,30.39
2022-08-17T16:45:52.430Z,29.97
2022-08-17T16:51:02.005Z,29.61
2022-08-17T16:56:06.630Z,29.30
2022-08-17T17:01:07.821Z,29.05
2022-08-17T17:06:14.982Z,28.83
2022-08-17T17:11:25.050Z,28.65
2022-08-17T17:16:44.999Z,28.48
2022-08-17T17:22:08.354Z,28.30
2022-08-17T17:27:47.331Z,28.14
2022-08-17T17:32:54.573Z,27.95
2022-08-17T17:37:56.610Z,27.79
2022-08-17T17:43:09.442Z,27.63
2022-08-17T17:48:21.150Z,27.49
2022-08-17T17:53:43.366Z,27.36
2022-08-17T17:58:52.599Z,27.22
2022-08-17T18:04:31.355Z,27.09
2022-08-17T18:10:19.445Z,26.93
2022-08-17T18:15:51.533Z,26.76
2022-08-17T18:21:04.317Z,26.62
2022-08-17T18:26:05.905Z,26.50
2022-08-17T18:31:25.785Z,26.38
2022-08-17T18:36:33.001Z,26.28
2022-08-17T18:41:43.475Z,26.20
2022-08-17T18:46:44.629Z,26.11
2022-08-17T18:51:45.786Z,26.02
2022-08-17T18:57:06.842Z,25.91
2022-08-17T19:02:20.738Z,25.79
2022-08-17T19:07:38.575Z,25.65
2022-08-17T19:13:12.172Z,25.51
2022-08-17T19:18:23.348Z,25.40
2022-08-17T19:23:31.914Z,25.30
2022-08-17T19:28:44.849Z,25.21
2022-08-17T19:33:50.293Z,25.12
2022-08-17T19:39:16.998Z,25.03
2022-08-17T19:44:39.439Z,24.92
2022-08-17T19:50:25.808Z,24.83
2022-08-17T19:55:48.508Z,24.71
2022-08-17T20:00:51.527Z,24.62
2022-08-17T20:06:14.096Z,24.55
2022-08-17T20:11:24.004Z,24.51
2022-08-17T20:16:25.322Z,24.50
2022-08-17T20:21:43.961Z,24.49
2022-08-17T20:26:58.669Z,24.48
2022-08-17T20:32:00.137Z,24.43
2022-08-17T20:37:13.685Z,24.36
2022-08-17T20:42:14.690Z,24.28
2022-08-17T20:47:36.858Z,24.20
2022-08-17T20:52:48.521Z,24.13
2022-08-17T20:57:51.053Z,24.05
2022-08-17T21:03:21.226Z,23.97
2022-08-17T21:08:35.376Z,23.86
2022-08-17T21:13:36.403Z,23.74
2022-08-17T21:19:16.881Z,24.23
2022-08-17T21:24:55.847Z,25.99
2022-08-17T21:30:34.797Z,26.20
2022-08-17T21:36:13.426Z,25.15
2022-08-17T21:41:43.245Z,24.58
2022-08-17T21:46:48.613Z,24.21
2022-08-17T21:51:54.309Z,23.94
2022-08-17T21:56:55.716Z,23.66
2022-08-17T22:01:58.897Z,23.42
2022-08-17T22:07:03.599Z,23.86
2022-08-17T22:12:15.678Z,25.42
2022-08-17T22:17:22.915Z,26.25
2022-08-17T22:23:01.687Z,26.17
2022-08-17T22:28:04.533Z,24.94
2022-08-17T22:33:27.156Z,24.22
2022-08-17T22:38:30.757Z,23.66
2022-08-17T22:43:37.400Z,23.25
2022-08-17T22:48:47.896Z,23.60
2022-08-17T22:54:08.981Z,25.09
2022-08-17T22:59:29.512Z,25.83
2022-08-17T23:04:32.692Z,25.75
2022-08-17T23:09:35.247Z,24.63
2022-08-17T23:14:41.638Z,23.97
2022-08-17T23:19:44.330Z,23.46
2022-08-17T23:24:49.550Z,23.08
2022-08-17T23:29:50.701Z,23.40
2022-08-17T23:34:51.794Z,24.81
2022-08-17T23:39:52.990Z,25.65
2022-08-17T23:44:55.099Z,25.55
2022-08-17T23:49:56.412Z,24.38
2022-08-17T23:55:04.910Z,23.63
